Time;durP1;ratioP1;P1;durP2;ratioP2;P2;SDS_P1;SDS_P2;PMS_P1;PMS_P2;Temp;Humidity;BMP_temperature;BMP_pressure;BME280_temperature;BME280_humidity;BME280_pressure;Samples;Min_cycle;Max_cycle;Signal;HPM_P1;HPM_P2
2021/10/14 00:01:16;;;;;;;1.35;0.70;;;;;;;;;;5069931;28;20068;-79
2021/10/14 00:03:42;;;;;;;1.60;0.60;;;;;;;;;;5068243;28;20087;-78
2021/10/14 00:06:09;;;;;;;2.30;1.05;;;;;;;;;;5069886;28;20063;-78
2021/10/14 00:08:35;;;;;;;0.93;0.43;;;;;;;;;;5069125;28;20504;-78
2021/10/14 00:11:02;;;;;;;1.67;0.73;;;;;;;;;;5065163;28;20090;-78
2021/10/14 00:13:29;;;;;;;1.60;0.80;;;;;;;;;;5068299;28;20060;-78
2021/10/14 00:15:55;;;;;;;1.42;0.60;;;;;;;;;;5068931;28;20056;-78
2021/10/14 00:18:21;;;;;;;1.25;0.55;;;;;;;;;;5069600;28;20072;-78
2021/10/14 00:20:48;;;;;;;1.40;0.57;;;;;;;;;;5066541;28;20060;-78
2021/10/14 00:23:14;;;;;;;1.40;0.50;;;;;;;;;;5066553;28;20076;-78
2021/10/14 00:25:41;;;;;;;1.67;0.60;;;;;;;;;;5068894;28;20065;-78
2021/10/14 00:28:07;;;;;;;2.40;0.63;;;;;;;;;;5068524;28;20074;-78
2021/10/14 00:30:34;;;;;;;0.75;0.30;;;;;;;;;;5067318;28;20067;-78
2021/10/14 00:33:00;;;;;;;1.80;0.63;;;;;;;;;;5069324;28;20476;-78
2021/10/14 00:35:26;;;;;;;1.10;0.50;;;;;;;;;;5068083;28;20063;-78
2021/10/14 00:37:53;;;;;;;2.08;0.60;;;;;;;;;;5065819;28;20793;-78
2021/10/14 00:40:19;;;;;;;2.70;0.70;;;;;;;;;;5065146;28;20060;-78
2021/10/14 00:42:46;;;;;;;1.63;0.55;;;;;;;;;;5059738;28;20064;-78
2021/10/14 00:45:13;;;;;;;0.35;0.30;;;;;;;;;;5065948;28;20061;-78
2021/10/14 00:47:40;;;;;;;1.77;0.50;;;;;;;;;;5069238;28;20060;-78
2021/10/14 00:50:07;;;;;;;1.40;0.50;;;;;;;;;;5064835;28;20075;-79
2021/10/14 00:52:34;;;;;;;1.00;0.63;;;;;;;;;;5068612;28;20472;-78
2021/10/14 00:55:01;;;;;;;1.15;0.70;;;;;;;;;;5068287;28;20487;-77
2021/10/14 00:57:29;;;;;;;0.98;0.50;;;;;;;;;;5068882;28;20064;-77
2021/10/14 00:59:55;;;;;;;1.00;0.50;;;;;;;;;;5066270;28;20048;-78
2021/10/14 01:02:22;;;;;;;3.65;0.50;;;;;;;;;;5070213;28;20064;-78
2021/10/14 01:04:48;;;;;;;1.08;0.60;;;;;;;;;;5069537;28;20052;-78
2021/10/14 01:07:15;;;;;;;0.85;0.40;;;;;;;;;;5065081;28;20515;-78
2021/10/14 01:09:41;;;;;;;1.30;0.55;;;;;;;;;;5064174;28;20067;-78
2021/10/14 01:12:08;;;;;;;1.42;0.68;;;;;;;;;;5066138;28;20064;-78
2021/10/14 01:14:34;;;;;;;1.85;0.60;;;;;;;;;;5068834;28;20036;-78
2021/10/14 01:17:01;;;;;;;1.27;0.65;;;;;;;;;;5058208;28;20060;-78
2021/10/14 01:19:27;;;;;;;1.92;0.50;;;;;;;;;;5064607;28;20052;-78
2021/10/14 01:21:54;;;;;;;1.35;0.50;;;;;;;;;;5064733;28;20465;-77
2021/10/14 01:24:20;;;;;;;1.80;0.55;;;;;;;;;;5063928;28;20079;-77
2021/10/14 01:26:47;;;;;;;1.02;0.50;;;;;;;;;;5064006;28;20086;-78
2021/10/14 01:29:13;;;;;;;1.52;0.50;;;;;;;;;;5065079;28;20459;-78
2021/10/14 01:31:40;;;;;;;0.90;0.30;;;;;;;;;;5066088;28;20085;-78
2021/10/14 01:34:07;;;;;;;1.25;0.45;;;;;;;;;;5062588;28;20060;-78
2021/10/14 01:36:34;;;;;;;1.02;0.50;;;;;;;;;;5068263;28;20090;-79
2021/10/14 01:39:01;;;;;;;2.35;0.68;;;;;;;;;;5068595;28;20051;-78
2021/10/14 01:41:27;;;;;;;0.98;0.40;;;;;;;;;;5062920;28;20052;-79
2021/10/14 01:43:53;;;;;;;1.95;0.80;;;;;;;;;;5066515;28;20064;-78
2021/10/14 01:46:20;;;;;;;1.35;0.60;;;;;;;;;;5065287;28;20060;-78
2021/10/14 01:48:47;;;;;;;0.73;0.50;;;;;;;;;;5066739;28;20059;-78
2021/10/14 01:51:13;;;;;;;1.30;0.63;;;;;;;;;;5061628;28;20075;-78
2021/10/14 01:53:39;;;;;;;1.35;0.50;;;;;;;;;;5063492;28;20083;-78
2021/10/14 01:56:06;;;;;;;1.00;0.47;;;;;;;;;;5062612;28;20204;-78
2021/10/14 01:58:32;;;;;;;1.08;0.50;;;;;;;;;;5057187;28;20060;-77
2021/10/14 02:00:59;;;;;;;3.03;0.55;;;;;;;;;;5062049;28;20029;-78
2021/10/14 02:03:25;;;;;;;1.15;0.55;;;;;;;;;;5067148;28;20122;-77
2021/10/14 02:05:52;;;;;;;1.23;0.50;;;;;;;;;;5073016;28;20053;-77
2021/10/14 02:08:18;;;;;;;0.90;0.50;;;;;;;;;;5062885;28;20053;-77
2021/10/14 02:10:44;;;;;;;1.38;0.60;;;;;;;;;;5071660;28;20068;-78
2021/10/14 02:13:11;;;;;;;1.38;0.40;;;;;;;;;;5066749;28;20036;-78
2021/10/14 02:15:37;;;;;;;2.38;0.40;;;;;;;;;;5067242;28;20550;-78
2021/10/14 02:18:03;;;;;;;1.17;0.55;;;;;;;;;;5066197;28;20060;-78
2021/10/14 02:20:30;;;;;;;0.85;0.35;;;;;;;;;;5064576;28;20064;-77
2021/10/14 02:22:56;;;;;;;0.70;0.50;;;;;;;;;;5063833;28;20067;-78
2021/10/14 02:25:23;;;;;;;1.58;0.80;;;;;;;;;;5064524;28;20068;-79
2021/10/14 02:27:49;;;;;;;0.52;0.28;;;;;;;;;;5065575;28;20037;-79
2021/10/14 02:30:16;;;;;;;0.77;0.40;;;;;;;;;;5064517;28;20067;-78
2021/10/14 02:32:42;;;;;;;1.48;0.50;;;;;;;;;;5061598;28;20072;-78
2021/10/14 02:35:09;;;;;;;0.50;0.32;;;;;;;;;;5063214;28;20056;-78
2021/10/14 02:37:35;;;;;;;1.08;0.45;;;;;;;;;;5063098;28;20044;-79
2021/10/14 02:40:03;;;;;;;0.80;0.40;;;;;;;;;;5062810;28;20091;-78
2021/10/14 02:42:29;;;;;;;1.08;0.43;;;;;;;;;;5070632;28;20153;-78
2021/10/14 02:44:56;;;;;;;1.10;0.60;;;;;;;;;;5064264;28;20441;-77
2021/10/14 02:47:22;;;;;;;0.90;0.50;;;;;;;;;;5066293;28;20044;-79
2021/10/14 02:49:48;;;;;;;0.75;0.40;;;;;;;;;;5060257;28;20040;-78
2021/10/14 02:52:15;;;;;;;0.90;0.40;;;;;;;;;;5064483;28;20056;-79
2021/10/14 02:54:41;;;;;;;0.82;0.43;;;;;;;;;;5065444;28;20048;-78
2021/10/14 02:57:08;;;;;;;0.80;0.50;;;;;;;;;;5066017;28;20048;-77
2021/10/14 02:59:34;;;;;;;1.35;0.40;;;;;;;;;;5064032;28;20057;-77
2021/10/14 03:02:01;;;;;;;2.42;0.50;;;;;;;;;;5065115;28;20063;-78
2021/10/14 03:04:27;;;;;;;1.50;0.60;;;;;;;;;;5069060;28;20060;-77
2021/10/14 03:06:53;;;;;;;1.02;0.50;;;;;;;;;;5068675;28;20076;-78
2021/10/14 03:09:20;;;;;;;1.33;0.50;;;;;;;;;;5068483;28;20118;-78
2021/10/14 03:11:46;;;;;;;1.38;0.45;;;;;;;;;;5064022;28;20140;-78
2021/10/14 03:14:13;;;;;;;1.15;0.43;;;;;;;;;;5071126;28;20525;-78
2021/10/14 03:16:39;;;;;;;0.95;0.50;;;;;;;;;;5067417;28;20117;-78
2021/10/14 03:19:05;;;;;;;1.35;0.65;;;;;;;;;;5068139;28;20056;-79
2021/10/14 03:21:32;;;;;;;0.63;0.38;;;;;;;;;;5071162;28;20543;-78
2021/10/14 03:23:58;;;;;;;1.50;0.40;;;;;;;;;;5060794;28;20072;-78
2021/10/14 03:26:25;;;;;;;1.58;0.40;;;;;;;;;;5069477;28;20060;-81
2021/10/14 03:28:51;;;;;;;0.85;0.38;;;;;;;;;;5068779;28;20060;-81
2021/10/14 03:31:20;;;;;;;1.20;0.50;;;;;;;;;;5062199;28;20118;-82
2021/10/14 03:33:46;;;;;;;0.98;0.52;;;;;;;;;;5064490;28;20078;-80
2021/10/14 03:36:13;;;;;;;0.75;0.32;;;;;;;;;;5064025;28;20730;-81
2021/10/14 03:38:39;;;;;;;0.35;0.30;;;;;;;;;;5066092;28;20052;-81
2021/10/14 03:41:06;;;;;;;1.23;0.60;;;;;;;;;;5059248;28;20489;-81
2021/10/14 03:43:32;;;;;;;0.90;0.40;;;;;;;;;;5065977;28;20060;-81
2021/10/14 03:45:59;;;;;;;1.40;0.40;;;;;;;;;;5058371;28;20057;-80
2021/10/14 03:48:25;;;;;;;1.88;0.50;;;;;;;;;;5063227;28;20086;-81
2021/10/14 03:50:51;;;;;;;1.30;0.47;;;;;;;;;;5058341;28;20056;-81
2021/10/14 03:53:18;;;;;;;0.85;0.40;;;;;;;;;;5063755;28;20518;-81
2021/10/14 03:55:44;;;;;;;0.85;0.47;;;;;;;;;;5069912;28;20582;-81
2021/10/14 03:58:11;;;;;;;1.05;0.47;;;;;;;;;;5064332;28;20118;-81
2021/10/14 04:00:37;;;;;;;0.63;0.30;;;;;;;;;;5067093;28;20452;-81
2021/10/14 04:03:04;;;;;;;1.75;0.50;;;;;;;;;;5059182;28;20350;-82
2021/10/14 04:05:30;;;;;;;1.35;0.47;;;;;;;;;;5056532;28;20063;-83
2021/10/14 04:07:56;;;;;;;0.85;0.40;;;;;;;;;;5065203;28;20511;-81
2021/10/14 04:10:23;;;;;;;1.92;0.60;;;;;;;;;;5060715;28;20061;-83
2021/10/14 04:12:49;;;;;;;1.10;0.50;;;;;;;;;;5070049;28;20060;-82
2021/10/14 04:15:18;;;;;;;1.50;0.55;;;;;;;;;;5058124;28;20125;-82
2021/10/14 04:17:47;;;;;;;0.93;0.50;;;;;;;;;;5055724;28;20424;-81
2021/10/14 04:20:13;;;;;;;1.48;0.57;;;;;;;;;;5065487;28;21612;-82
2021/10/14 04:22:39;;;;;;;0.55;0.30;;;;;;;;;;5064868;28;20134;-80
2021/10/14 04:25:06;;;;;;;1.02;0.60;;;;;;;;;;5067699;28;20095;-81
2021/10/14 04:27:33;;;;;;;1.77;0.60;;;;;;;;;;5064411;28;20064;-79
2021/10/14 04:29:59;;;;;;;0.98;0.47;;;;;;;;;;5063248;28;20055;-82
2021/10/14 04:32:26;;;;;;;0.98;0.30;;;;;;;;;;5064671;28;20059;-78
2021/10/14 04:34:52;;;;;;;1.27;0.50;;;;;;;;;;5059782;28;20063;-83
2021/10/14 04:37:18;;;;;;;1.55;0.63;;;;;;;;;;5067096;28;20068;-80
2021/10/14 04:39:45;;;;;;;1.63;0.50;;;;;;;;;;5066334;28;20060;-81
2021/10/14 04:42:11;;;;;;;1.65;0.60;;;;;;;;;;5058312;28;20518;-81
2021/10/14 04:44:38;;;;;;;1.17;0.50;;;;;;;;;;5063053;28;20154;-82
2021/10/14 04:47:05;;;;;;;1.13;0.50;;;;;;;;;;5062617;28;20052;-81
2021/10/14 04:49:31;;;;;;;1.30;0.50;;;;;;;;;;5059742;28;20461;-80
2021/10/14 04:51:58;;;;;;;0.90;0.30;;;;;;;;;;5054066;28;20067;-80
2021/10/14 04:54:25;;;;;;;2.03;0.60;;;;;;;;;;5055770;28;20057;-80
2021/10/14 04:56:51;;;;;;;2.08;0.40;;;;;;;;;;5057812;28;20063;-81
2021/10/14 04:59:18;;;;;;;2.25;0.40;;;;;;;;;;5057332;28;20060;-81
2021/10/14 05:01:44;;;;;;;1.58;0.40;;;;;;;;;;5053926;28;20052;-81
2021/10/14 05:04:10;;;;;;;1.00;0.40;;;;;;;;;;5057491;28;20065;-79
2021/10/14 05:06:37;;;;;;;1.80;0.55;;;;;;;;;;5059445;28;20049;-79
2021/10/14 05:09:03;;;;;;;1.48;0.52;;;;;;;;;;5057184;28;20068;-78
2021/10/14 05:11:30;;;;;;;1.30;0.50;;;;;;;;;;5064261;28;20114;-78
2021/10/14 05:13:56;;;;;;;2.97;0.57;;;;;;;;;;5060890;28;20110;-78
2021/10/14 05:16:22;;;;;;;1.77;0.45;;;;;;;;;;5067448;28;20103;-79
2021/10/14 05:18:49;;;;;;;1.88;0.50;;;;;;;;;;5062229;28;20052;-77
2021/10/14 05:21:15;;;;;;;1.52;0.60;;;;;;;;;;5070619;28;20456;-79
2021/10/14 05:23:41;;;;;;;1.77;0.50;;;;;;;;;;5062301;28;20073;-78
2021/10/14 05:26:08;;;;;;;1.42;0.57;;;;;;;;;;5066914;28;20881;-78
2021/10/14 05:28:34;;;;;;;2.17;0.60;;;;;;;;;;5062989;28;20060;-78
2021/10/14 05:31:01;;;;;;;1.88;0.60;;;;;;;;;;5063772;28;20122;-79
2021/10/14 05:33:27;;;;;;;1.67;0.65;;;;;;;;;;5070041;28;20048;-80
2021/10/14 05:35:53;;;;;;;2.15;0.50;;;;;;;;;;5070955;28;20063;-77
2021/10/14 05:38:20;;;;;;;3.17;0.60;;;;;;;;;;5072148;28;20541;-78
2021/10/14 05:40:48;;;;;;;1.92;0.75;;;;;;;;;;5070181;28;20071;-78
2021/10/14 05:43:14;;;;;;;3.05;0.88;;;;;;;;;;5072672;27;21570;-78
2021/10/14 05:45:41;;;;;;;1.55;0.50;;;;;;;;;;5072254;28;20055;-81
2021/10/14 05:48:07;;;;;;;2.25;0.60;;;;;;;;;;5072757;28;20044;-78
2021/10/14 05:50:34;;;;;;;1.85;0.60;;;;;;;;;;5060360;28;20067;-79
2021/10/14 05:53:00;;;;;;;1.90;0.45;;;;;;;;;;5059210;28;20491;-79
2021/10/14 05:55:26;;;;;;;2.10;0.73;;;;;;;;;;5063259;28;20067;-79
2021/10/14 05:57:53;;;;;;;2.72;0.80;;;;;;;;;;5054910;28;20056;-78
2021/10/14 06:00:21;;;;;;;2.50;0.85;;;;;;;;;;5061186;28;20453;-81
2021/10/14 06:02:47;;;;;;;2.53;0.70;;;;;;;;;;5058881;28;20084;-79
2021/10/14 06:05:14;;;;;;;2.42;0.80;;;;;;;;;;5070370;28;20067;-80
2021/10/14 06:07:40;;;;;;;2.67;0.60;;;;;;;;;;5071076;28;20106;-80
2021/10/14 06:10:07;;;;;;;2.85;1.20;;;;;;;;;;5074839;28;20499;-79
2021/10/14 06:12:33;;;;;;;1.52;0.73;;;;;;;;;;5068164;28;20559;-75
2021/10/14 06:14:59;;;;;;;1.25;0.60;;;;;;;;;;5067944;28;20052;-75
2021/10/14 06:17:26;;;;;;;2.42;0.70;;;;;;;;;;5067885;28;20516;-75
2021/10/14 06:19:52;;;;;;;1.40;0.70;;;;;;;;;;5067148;28;20066;-76
2021/10/14 06:22:18;;;;;;;2.97;0.70;;;;;;;;;;5074745;28;20052;-75
2021/10/14 06:24:45;;;;;;;2.45;0.90;;;;;;;;;;5068042;28;20548;-75
2021/10/14 06:27:11;;;;;;;2.42;0.70;;;;;;;;;;5072370;28;20060;-75
2021/10/14 06:29:38;;;;;;;3.67;0.68;;;;;;;;;;5073272;28;20060;-75
2021/10/14 06:32:04;;;;;;;3.40;0.90;;;;;;;;;;5058836;28;20075;-75
2021/10/14 06:34:31;;;;;;;2.42;0.98;;;;;;;;;;5058846;28;20060;-75
2021/10/14 06:36:57;;;;;;;2.92;0.93;;;;;;;;;;5066267;28;20049;-81
2021/10/14 06:39:23;;;;;;;3.40;0.82;;;;;;;;;;5072725;28;20056;-84
2021/10/14 06:41:50;;;;;;;3.42;0.70;;;;;;;;;;5081577;28;20064;-83
2021/10/14 06:44:16;;;;;;;2.47;0.90;;;;;;;;;;5072445;28;20087;-84
2021/10/14 06:46:43;;;;;;;1.80;0.60;;;;;;;;;;5079438;28;20394;-84
2021/10/14 06:49:09;;;;;;;1.88;0.77;;;;;;;;;;5070674;28;20044;-84
2021/10/14 06:51:35;;;;;;;2.65;0.65;;;;;;;;;;5071694;28;20439;-84
2021/10/14 06:54:02;;;;;;;5.32;0.80;;;;;;;;;;5070386;28;20131;-84
2021/10/14 06:56:28;;;;;;;2.70;1.00;;;;;;;;;;5070766;28;20083;-84
2021/10/14 06:58:55;;;;;;;5.38;0.90;;;;;;;;;;5069138;28;20064;-84
2021/10/14 07:01:21;;;;;;;3.58;0.90;;;;;;;;;;5072481;28;20056;-84
2021/10/14 07:03:47;;;;;;;2.40;1.00;;;;;;;;;;5068446;28;20075;-85
2021/10/14 07:06:15;;;;;;;3.25;0.80;;;;;;;;;;5069444;28;20033;-84
2021/10/14 07:08:42;;;;;;;1.63;0.65;;;;;;;;;;5070532;28;20048;-84
2021/10/14 07:11:09;;;;;;;3.15;0.73;;;;;;;;;;5072728;28;20441;-84
2021/10/14 07:13:37;;;;;;;1.88;0.63;;;;;;;;;;5068153;28;20068;-85
2021/10/14 07:16:03;;;;;;;2.92;0.98;;;;;;;;;;5074811;28;20472;-84
2021/10/14 07:18:29;;;;;;;2.80;0.90;;;;;;;;;;5070566;28;20064;-85
2021/10/14 07:20:56;;;;;;;3.85;0.90;;;;;;;;;;5067015;28;20060;-84
2021/10/14 07:23:22;;;;;;;4.15;0.93;;;;;;;;;;5070924;28;20052;-85
2021/10/14 07:25:49;;;;;;;2.92;0.90;;;;;;;;;;5061900;28;20489;-84
2021/10/14 07:28:15;;;;;;;4.65;1.20;;;;;;;;;;5071133;28;20036;-85
2021/10/14 07:30:42;;;;;;;3.92;1.10;;;;;;;;;;5069512;28;20082;-84
2021/10/14 07:33:08;;;;;;;3.13;0.90;;;;;;;;;;5067109;28;20060;-84
2021/10/14 07:35:35;;;;;;;2.20;1.00;;;;;;;;;;5071717;28;20060;-85
2021/10/14 07:38:09;;;;;;;2.03;0.65;;;;;;;;;;5068416;28;20071;-84
2021/10/14 07:40:39;;;;;;;3.58;0.93;;;;;;;;;;5070170;28;20082;-85
2021/10/14 07:43:05;;;;;;;2.80;0.70;;;;;;;;;;5069225;28;20197;-84
2021/10/14 07:45:32;;;;;;;2.10;0.80;;;;;;;;;;5068921;28;20068;-83
2021/10/14 07:47:58;;;;;;;4.53;0.93;;;;;;;;;;5065853;28;20783;-84
2021/10/14 07:50:24;;;;;;;3.90;0.90;;;;;;;;;;5069374;28;20056;-84
2021/10/14 07:52:51;;;;;;;2.55;0.60;;;;;;;;;;5069134;28;20437;-84
2021/10/14 07:55:17;;;;;;;1.90;0.57;;;;;;;;;;5057029;28;20060;-84
2021/10/14 07:57:44;;;;;;;2.25;0.80;;;;;;;;;;5077098;28;20469;-84
2021/10/14 08:00:11;;;;;;;2.10;0.77;;;;;;;;;;5059973;28;20082;-84
2021/10/14 08:02:37;;;;;;;3.45;0.70;;;;;;;;;;5065935;28;20041;-84
2021/10/14 08:05:04;;;;;;;2.95;0.70;;;;;;;;;;5067072;28;20058;-84
2021/10/14 08:07:30;;;;;;;2.38;0.85;;;;;;;;;;5074740;28;20021;-83
2021/10/14 08:09:57;;;;;;;2.25;0.70;;;;;;;;;;5070989;28;20053;-84
2021/10/14 08:12:24;;;;;;;2.28;0.60;;;;;;;;;;5070681;28;20082;-85
2021/10/14 08:14:53;;;;;;;2.60;0.85;;;;;;;;;;5069856;28;20048;-83
2021/10/14 08:17:19;;;;;;;1.80;0.73;;;;;;;;;;5069431;28;20185;-85
2021/10/14 08:19:46;;;;;;;1.98;0.60;;;;;;;;;;5063548;28;20070;-84
2021/10/14 08:22:12;;;;;;;2.65;0.70;;;;;;;;;;5058588;28;20068;-84
2021/10/14 08:24:40;;;;;;;1.42;0.60;;;;;;;;;;5065744;28;20053;-83
2021/10/14 08:27:06;;;;;;;3.17;1.13;;;;;;;;;;5074791;28;20079;-84
2021/10/14 08:29:33;;;;;;;2.88;0.80;;;;;;;;;;5069231;28;20086;-84
2021/10/14 08:32:02;;;;;;;1.98;0.70;;;;;;;;;;5060501;28;20098;-84
2021/10/14 08:34:29;;;;;;;1.75;0.80;;;;;;;;;;5064988;28;20033;-84
2021/10/14 08:36:55;;;;;;;4.40;0.88;;;;;;;;;;5067009;28;20071;-83
2021/10/14 08:39:22;;;;;;;1.45;0.60;;;;;;;;;;5069626;28;20118;-84
2021/10/14 08:41:49;;;;;;;2.80;0.80;;;;;;;;;;5068527;28;20590;-82
2021/10/14 08:44:19;;;;;;;2.17;0.70;;;;;;;;;;5066193;28;20064;-84
2021/10/14 08:46:47;;;;;;;3.33;0.75;;;;;;;;;;5068894;28;20367;-84
2021/10/14 08:49:14;;;;;;;2.53;0.68;;;;;;;;;;5072799;28;20341;-83
2021/10/14 08:51:41;;;;;;;1.80;0.85;;;;;;;;;;5070689;28;20060;-83
2021/10/14 08:54:07;;;;;;;2.80;0.75;;;;;;;;;;5068824;28;20067;-84
2021/10/14 08:56:34;;;;;;;2.10;0.75;;;;;;;;;;5069331;28;20119;-85
2021/10/14 08:59:01;;;;;;;1.63;0.60;;;;;;;;;;5064599;28;20052;-84
2021/10/14 09:01:27;;;;;;;1.85;0.70;;;;;;;;;;5069603;28;20125;-84
2021/10/14 09:03:54;;;;;;;2.47;0.90;;;;;;;;;;5071379;28;20507;-84
2021/10/14 09:06:21;;;;;;;2.22;0.73;;;;;;;;;;5076287;28;20153;-83
2021/10/14 09:08:48;;;;;;;1.80;0.60;;;;;;;;;;5073198;28;20082;-84
2021/10/14 09:11:14;;;;;;;2.50;0.60;;;;;;;;;;5065403;28;21288;-83
2021/10/14 09:13:51;;;;;;;2.20;0.73;;;;;;;;;;5061610;28;20063;-84
2021/10/14 09:16:20;;;;;;;3.60;0.73;;;;;;;;;;5067626;28;21461;-84
2021/10/14 09:18:48;;;;;;;2.28;0.70;;;;;;;;;;5070106;28;20067;-82
2021/10/14 09:21:43;;;;;;;2.05;0.60;;;;;;;;;;5078988;28;20105;-84
2021/10/14 09:24:33;;;;;;;2.03;0.60;;;;;;;;;;5057643;28;20449;-85
2021/10/14 09:27:01;;;;;;;2.58;0.77;;;;;;;;;;5066313;28;20036;-84
2021/10/14 09:29:28;;;;;;;2.53;0.77;;;;;;;;;;5069056;28;20036;-84
2021/10/14 09:31:58;;;;;;;2.55;0.70;;;;;;;;;;5066370;28;20025;-83
2021/10/14 09:34:25;;;;;;;2.20;0.73;;;;;;;;;;5071203;28;20040;-85
2021/10/14 09:36:52;;;;;;;1.90;0.70;;;;;;;;;;5072064;28;20029;-83
2021/10/14 09:39:19;;;;;;;2.90;0.82;;;;;;;;;;5070179;28;20033;-84
2021/10/14 09:41:46;;;;;;;3.75;1.00;;;;;;;;;;5067847;28;20106;-84
2021/10/14 09:44:14;;;;;;;2.10;1.00;;;;;;;;;;5082217;28;20041;-84
2021/10/14 09:46:42;;;;;;;2.47;0.68;;;;;;;;;;5089367;28;20033;-83
2021/10/14 09:49:13;;;;;;;1.95;0.57;;;;;;;;;;5090642;28;20093;-83
2021/10/14 09:51:40;;;;;;;1.35;0.45;;;;;;;;;;5085367;28;20054;-82
2021/10/14 09:54:06;;;;;;;2.22;0.60;;;;;;;;;;5085190;28;20040;-83
2021/10/14 09:56:33;;;;;;;2.85;0.80;;;;;;;;;;5089753;28;20525;-83
2021/10/14 09:59:01;;;;;;;2.00;0.60;;;;;;;;;;5081283;28;20036;-83
2021/10/14 10:01:49;;;;;;;1.92;0.60;;;;;;;;;;5073673;28;20032;-83
2021/10/14 10:04:18;;;;;;;1.50;0.63;;;;;;;;;;5083003;28;21302;-83
2021/10/14 10:06:46;;;;;;;2.00;0.60;;;;;;;;;;5090332;28;20071;-83
2021/10/14 10:09:15;;;;;;;1.95;0.70;;;;;;;;;;5087398;28;20062;-84
2021/10/14 10:11:48;;;;;;;2.28;0.70;;;;;;;;;;5085144;28;20066;-84
2021/10/14 10:14:15;;;;;;;1.73;0.65;;;;;;;;;;5083088;28;20228;-83
2021/10/14 10:16:58;;;;;;;2.88;1.02;;;;;;;;;;5089441;28;20058;-83
2021/10/14 10:19:43;;;;;;;1.92;0.60;;;;;;;;;;5083867;28;21228;-82
2021/10/14 10:22:10;;;;;;;2.28;0.68;;;;;;;;;;5062278;28;20476;-83
2021/10/14 10:24:36;;;;;;;2.15;0.80;;;;;;;;;;5066224;28;20592;-82
2021/10/14 10:27:04;;;;;;;4.47;0.95;;;;;;;;;;5067294;28;20106;-83
2021/10/14 10:29:30;;;;;;;2.10;0.57;;;;;;;;;;5063436;28;20029;-83
2021/10/14 10:31:56;;;;;;;2.15;0.63;;;;;;;;;;5063607;28;20146;-81
2021/10/14 10:34:36;;;;;;;1.90;0.73;;;;;;;;;;5068448;28;20063;-83
2021/10/14 10:37:19;;;;;;;2.08;0.80;;;;;;;;;;5067033;28;20438;-83
2021/10/14 10:39:45;;;;;;;2.10;0.60;;;;;;;;;;5067385;28;20519;-84
2021/10/14 10:42:15;;;;;;;2.13;0.70;;;;;;;;;;5062093;28;20443;-84
2021/10/14 10:44:45;;;;;;;1.70;0.80;;;;;;;;;;5066911;28;20450;-84
2021/10/14 10:47:30;;;;;;;1.92;0.50;;;;;;;;;;5061779;28;20504;-84
2021/10/14 10:49:56;;;;;;;1.52;0.70;;;;;;;;;;5063547;28;20115;-82
2021/10/14 10:52:32;;;;;;;1.85;0.80;;;;;;;;;;5062165;28;20453;-84
2021/10/14 10:54:59;;;;;;;2.33;0.80;;;;;;;;;;5067200;28;20057;-83
2021/10/14 10:57:45;;;;;;;2.70;0.77;;;;;;;;;;5066712;28;20117;-84
2021/10/14 11:00:16;;;;;;;2.47;0.70;;;;;;;;;;5040875;28;20500;-83
2021/10/14 11:02:42;;;;;;;1.02;0.55;;;;;;;;;;5068912;28;20086;-84
2021/10/14 11:05:09;;;;;;;2.88;0.70;;;;;;;;;;5065188;28;20072;-83
2021/10/14 11:07:35;;;;;;;2.45;0.85;;;;;;;;;;5064549;28;20452;-83
2021/10/14 11:10:02;;;;;;;1.92;0.65;;;;;;;;;;5063852;28;20053;-84
2021/10/14 11:12:28;;;;;;;1.67;0.60;;;;;;;;;;5067973;28;20032;-83
2021/10/14 11:14:55;;;;;;;2.70;0.80;;;;;;;;;;5061298;28;20028;-81
2021/10/14 11:17:25;;;;;;;3.55;1.10;;;;;;;;;;5058120;28;20048;-83
2021/10/14 11:20:03;;;;;;;2.08;0.77;;;;;;;;;;5075158;28;20051;-83
2021/10/14 11:22:30;;;;;;;1.45;0.63;;;;;;;;;;5068127;28;20048;-83
2021/10/14 11:25:00;;;;;;;2.05;0.57;;;;;;;;;;5072428;28;20068;-81
2021/10/14 11:27:26;;;;;;;1.80;0.60;;;;;;;;;;5070990;28;20052;-82
2021/10/14 11:29:53;;;;;;;1.38;0.70;;;;;;;;;;5064512;28;20021;-83
2021/10/14 11:32:31;;;;;;;2.30;0.75;;;;;;;;;;5069566;28;20060;-83
2021/10/14 11:35:08;;;;;;;3.28;0.65;;;;;;;;;;5068844;28;20060;-82
2021/10/14 11:37:34;;;;;;;2.97;0.63;;;;;;;;;;5079660;28;20497;-84
2021/10/14 11:40:01;;;;;;;2.30;0.52;;;;;;;;;;5069525;28;20052;-83
2021/10/14 11:42:28;;;;;;;3.15;0.73;;;;;;;;;;5070209;28;20048;-83
2021/10/14 11:44:58;;;;;;;1.75;0.80;;;;;;;;;;5066408;28;20064;-83
2021/10/14 11:47:25;;;;;;;1.63;0.63;;;;;;;;;;5061956;28;20090;-84
2021/10/14 11:50:02;;;;;;;1.75;0.63;;;;;;;;;;5058042;28;20486;-83
2021/10/14 11:52:29;;;;;;;1.42;0.70;;;;;;;;;;5069960;28;20100;-83
2021/10/14 11:55:06;;;;;;;1.50;0.52;;;;;;;;;;5068698;28;20056;-83
2021/10/14 11:57:33;;;;;;;2.80;0.80;;;;;;;;;;5061402;28;20060;-83
2021/10/14 12:00:00;;;;;;;2.30;0.65;;;;;;;;;;5067038;28;20060;-84
2021/10/14 12:02:27;;;;;;;2.40;0.60;;;;;;;;;;5062108;28;20113;-84
2021/10/14 12:04:54;;;;;;;1.38;0.55;;;;;;;;;;5068838;28;20068;-83
2021/10/14 12:07:24;;;;;;;2.45;0.70;;;;;;;;;;5075412;28;20764;-84
2021/10/14 12:09:51;;;;;;;1.35;0.50;;;;;;;;;;5070785;28;20121;-81
2021/10/14 12:12:19;;;;;;;1.48;0.50;;;;;;;;;;5068991;28;20068;-83
2021/10/14 12:14:47;;;;;;;2.78;0.80;;;;;;;;;;5068465;28;20029;-82
2021/10/14 12:17:18;;;;;;;2.10;0.60;;;;;;;;;;5067713;28;20133;-82
2021/10/14 12:19:48;;;;;;;2.17;0.70;;;;;;;;;;5059485;28;20496;-84
2021/10/14 12:22:20;;;;;;;3.53;0.65;;;;;;;;;;5067734;28;20040;-83
2021/10/14 12:25:03;;;;;;;2.25;0.82;;;;;;;;;;5065120;28;20076;-83
2021/10/14 12:27:49;;;;;;;1.98;0.70;;;;;;;;;;5067091;28;20040;-83
2021/10/14 12:30:32;;;;;;;1.08;0.50;;;;;;;;;;5065656;28;21284;-83
2021/10/14 12:33:16;;;;;;;1.75;0.47;;;;;;;;;;5066234;28;20025;-82
2021/10/14 12:35:51;;;;;;;2.58;1.00;;;;;;;;;;5069658;28;20064;-83
2021/10/14 12:38:18;;;;;;;1.77;0.60;;;;;;;;;;5066967;28;21324;-83
2021/10/14 12:41:05;;;;;;;3.97;0.70;;;;;;;;;;5067689;28;20504;-83
2021/10/14 12:43:48;;;;;;;1.90;0.70;;;;;;;;;;5061249;28;20098;-83
2021/10/14 12:49:38;;;;;;;1.52;0.70;;;;;;;;;;5068304;28;20037;-82
2021/10/14 12:51:57;;;;;;;1.95;0.70;;;;;;;;;;5066561;28;20033;-82
2021/10/14 12:54:26;;;;;;;1.83;0.68;;;;;;;;;;5061770;28;20103;-83
2021/10/14 12:56:57;;;;;;;2.33;0.75;;;;;;;;;;5064359;28;20064;-82
2021/10/14 12:59:23;;;;;;;1.30;0.50;;;;;;;;;;5062740;28;20137;-82
2021/10/14 13:01:50;;;;;;;1.38;0.55;;;;;;;;;;5062709;28;20057;-83
2021/10/14 13:04:21;;;;;;;1.95;0.70;;;;;;;;;;5060728;28;21307;-83
2021/10/14 13:06:49;;;;;;;1.30;0.50;;;;;;;;;;5069933;28;20072;-83
2021/10/14 13:09:15;;;;;;;1.33;0.73;;;;;;;;;;5066916;28;20313;-83
2021/10/14 13:11:42;;;;;;;1.23;0.50;;;;;;;;;;5061183;28;20044;-83
2021/10/14 13:14:12;;;;;;;1.52;0.50;;;;;;;;;;5056904;28;20489;-83
2021/10/14 13:16:39;;;;;;;1.13;0.50;;;;;;;;;;5067667;28;20067;-83
2021/10/14 13:19:06;;;;;;;1.58;0.60;;;;;;;;;;5066570;28;20466;-83
2021/10/14 13:21:33;;;;;;;3.08;0.77;;;;;;;;;;5059753;28;20102;-84
2021/10/14 13:24:01;;;;;;;1.20;0.40;;;;;;;;;;5062995;28;20491;-84
2021/10/14 13:26:27;;;;;;;1.48;0.57;;;;;;;;;;5064666;28;20120;-84
2021/10/14 13:28:55;;;;;;;2.92;0.57;;;;;;;;;;5068843;28;20063;-83
2021/10/14 13:31:22;;;;;;;1.60;0.47;;;;;;;;;;5065145;28;20048;-83
2021/10/14 13:33:52;;;;;;;2.50;0.57;;;;;;;;;;5061870;28;20068;-83
2021/10/14 13:36:20;;;;;;;0.90;0.50;;;;;;;;;;5069855;28;21214;-83
2021/10/14 13:38:48;;;;;;;1.80;0.68;;;;;;;;;;5067373;28;20066;-83
2021/10/14 13:41:19;;;;;;;3.00;0.60;;;;;;;;;;5070770;28;20048;-83
2021/10/14 13:43:53;;;;;;;1.90;0.73;;;;;;;;;;5066360;28;20075;-83
2021/10/14 13:46:19;;;;;;;1.75;0.77;;;;;;;;;;5058342;28;20094;-82
2021/10/14 13:48:46;;;;;;;1.42;0.50;;;;;;;;;;5067567;28;20033;-83
2021/10/14 13:51:12;;;;;;;2.30;0.60;;;;;;;;;;5068457;28;20656;-83
2021/10/14 13:53:39;;;;;;;2.08;0.50;;;;;;;;;;5054298;28;20076;-84
2021/10/14 13:56:05;;;;;;;2.20;0.57;;;;;;;;;;5051508;28;20064;-83
2021/10/14 13:58:31;;;;;;;1.65;0.50;;;;;;;;;;5065392;28;20071;-83
2021/10/14 14:00:58;;;;;;;1.85;0.60;;;;;;;;;;5069089;28;20048;-84
2021/10/14 14:03:24;;;;;;;1.33;0.50;;;;;;;;;;5066686;28;20060;-83
2021/10/14 14:05:51;;;;;;;1.58;0.50;;;;;;;;;;5059389;28;20087;-81
2021/10/14 14:08:18;;;;;;;2.97;0.57;;;;;;;;;;5075290;28;20072;-82
2021/10/14 14:10:45;;;;;;;2.40;0.70;;;;;;;;;;5057839;28;20040;-83
2021/10/14 14:13:12;;;;;;;2.65;0.40;;;;;;;;;;5059784;28;20122;-83
2021/10/14 14:15:39;;;;;;;1.65;0.65;;;;;;;;;;5066033;28;20521;-83
2021/10/14 14:18:06;;;;;;;2.53;0.77;;;;;;;;;;5064615;28;20106;-82
2021/10/14 14:20:34;;;;;;;1.38;0.50;;;;;;;;;;5061115;28;20117;-82
2021/10/14 14:23:01;;;;;;;1.00;0.60;;;;;;;;;;5064518;28;20064;-82
2021/10/14 14:25:27;;;;;;;1.38;0.70;;;;;;;;;;5066600;28;20069;-82
2021/10/14 14:27:54;;;;;;;3.58;0.50;;;;;;;;;;5064478;28;20041;-82
2021/10/14 14:30:20;;;;;;;1.25;0.40;;;;;;;;;;5065614;28;20033;-82
2021/10/14 14:32:47;;;;;;;1.90;0.60;;;;;;;;;;5064547;28;20110;-83
2021/10/14 14:35:13;;;;;;;2.35;0.68;;;;;;;;;;5059047;28;20063;-82
2021/10/14 14:37:40;;;;;;;3.63;0.57;;;;;;;;;;5060605;28;20045;-82
2021/10/14 14:40:07;;;;;;;3.35;0.57;;;;;;;;;;5066106;28;20087;-81
2021/10/14 14:42:34;;;;;;;1.35;0.50;;;;;;;;;;5063672;28;20055;-82
2021/10/14 14:45:00;;;;;;;3.47;0.70;;;;;;;;;;5059441;28;20056;-83
2021/10/14 14:47:27;;;;;;;2.55;0.70;;;;;;;;;;5060176;28;20076;-83
2021/10/14 14:50:06;;;;;;;1.67;0.75;;;;;;;;;;5057980;28;20060;-82